Home   Weather   USA   Minocqua   Past weeks
Flag for USA

Past Weather in Minocqua, Wisconsin, USA — Yesterday and Last 2 Weeks

Currently: 28 °F. Clear. (Weather station: Minocqua / Woodruff, USA). See more current weather

Past Weather in Minocqua — Graph

°F

Minocqua Temperature Yesterday

Maximum temperature yesterday: 33 °F (at 2:55 pm)
Minimum temperature yesterday: 2 °F (at 5:35 am)
Average temperature yesterday: 19 °F

High & Low Weather Summary for the Past Weeks

 TemperatureHumidityPressure
High51 °F (Feb 22, 1:55 pm)97% (Feb 14, 10:15 pm)30.12 "Hg (Feb 14, 10:15 pm)
Low-2 °F (Feb 17, 4:55 am)23% (Feb 19, 1:55 pm)29.51 "Hg (Feb 18, 1:15 am)
Average24 °F68%29.87 "Hg
* Reported Feb 10 7:15 pm — Feb 25 7:15 pm, Minocqua. Weather by CustomWeather, © 2024

Note: Actual official high and low records may vary slightly from our data, if they occured in-between our weather recording intervals... More about our weather records

Minocqua Weather History for the Previous 24 Hours

Scroll right to see more
 ConditionsComfort  
Time TempWeatherWind HumidityBarometerVisibility
7:15 pm
Sun, Feb 25
31 °FClear.No wind51%29.76 "Hg10 mi
6:55 pm32 °FClear.3 mph49%29.74 "Hg10 mi
5:35 pm38 °FSunny.6 mph40%29.69 "Hg10 mi
5:15 pm40 °FSunny.7 mph37%29.68 "Hg10 mi
4:55 pm41 °FSunny.10 mph34%29.67 "Hg10 mi
4:35 pm42 °FSunny.8 mph31%29.66 "Hg10 mi
4:15 pm44 °FSunny.13 mph30%29.65 "Hg10 mi
3:55 pm44 °FSunny.10 mph30%29.64 "Hg10 mi
3:35 pm44 °FSunny.13 mph30%29.63 "Hg10 mi
2:55 pm45 °FSunny.12 mph29%29.61 "Hg10 mi
2:35 pm45 °FScattered clouds.15 mph31%29.61 "Hg10 mi
1:55 pm45 °FScattered clouds.12 mph34%29.61 "Hg10 mi
1:35 pm44 °FSunny.12 mph36%29.61 "Hg10 mi
1:15 pm44 °FSunny.12 mph40%29.61 "Hg10 mi
12:55 pm44 °FSunny.12 mph41%29.60 "Hg10 mi
12:35 pm43 °FSunny.6 mph44%29.60 "Hg10 mi
12:15 pm44 °FSunny.14 mph44%29.59 "Hg10 mi
11:55 am44 °FSunny.9 mph48%29.60 "Hg10 mi
11:35 am43 °FSunny.10 mph54%29.60 "Hg10 mi
11:15 am43 °FScattered clouds.14 mph56%29.59 "Hg10 mi
10:55 am41 °FOvercast.8 mph61%29.60 "Hg10 mi
10:35 am42 °FOvercast.15 mph61%29.60 "Hg10 mi
10:15 am39 °FBroken clouds.5 mph63%29.59 "Hg10 mi
9:55 am39 °FScattered clouds.9 mph61%29.59 "Hg10 mi
9:35 am37 °FSunny.8 mph62%29.59 "Hg10 mi
9:15 am35 °FSunny.7 mph64%29.59 "Hg10 mi
8:35 am31 °FScattered clouds.3 mph65%29.57 "Hg10 mi
7:55 am28 °FScattered clouds.No wind70%29.57 "Hg10 mi
7:35 am27 °FPartly sunny.No wind73%29.57 "Hg10 mi
6:55 am27 °FOvercast.No wind71%29.56 "Hg10 mi
6:35 am27 °FMostly cloudy.No wind70%29.56 "Hg10 mi
5:55 am27 °FPassing clouds.No wind70%29.55 "Hg10 mi
5:35 am27 °FPassing clouds.3 mph71%29.54 "Hg10 mi
5:15 am28 °FPartly cloudy.5 mph68%29.54 "Hg10 mi
4:55 am28 °FPassing clouds.5 mph69%29.54 "Hg10 mi
4:35 am28 °FPassing clouds.5 mph68%29.54 "Hg10 mi
4:15 am27 °FPassing clouds.5 mph69%29.55 "Hg10 mi
3:55 am27 °FPassing clouds.5 mph69%29.55 "Hg10 mi
3:35 am28 °FPassing clouds.5 mph66%29.55 "Hg10 mi
2:55 am28 °FPassing clouds.5 mph66%29.56 "Hg10 mi
2:35 am28 °FPassing clouds.5 mph66%29.57 "Hg10 mi
2:15 am28 °FPassing clouds.6 mph64%29.57 "Hg10 mi
1:50 am28 °FPassing clouds.6 mph64%29.57 "Hg10 mi
1:35 am28 °FClear.7 mph64%29.58 "Hg10 mi
12:55 am28 °FClear.10 mph63%29.59 "Hg10 mi
12:35 am29 °FClear.9 mph62%29.59 "Hg10 mi
12:15 am28 °FClear.8 mph62%29.60 "Hg10 mi
11:55 pm
Sat, Feb 24
28 °FClear.10 mph62%29.61 "Hg10 mi
11:35 pm28 °FClear.10 mph63%29.61 "Hg10 mi
11:15 pm27 °FClear.9 mph63%29.62 "Hg10 mi
10:55 pm28 °FClear.10 mph62%29.63 "Hg10 mi
10:35 pm27 °FClear.8 mph62%29.64 "Hg10 mi
10:15 pm27 °FClear.9 mph62%29.66 "Hg10 mi
9:55 pm28 °FClear.10 mph61%29.67 "Hg10 mi
9:35 pm28 °FClear.9 mph59%29.67 "Hg10 mi
9:15 pm28 °FClear.10 mph58%29.69 "Hg10 mi
8:55 pm28 °FClear.12 mph56%29.68 "Hg10 mi
8:35 pm28 °FClear.10 mph54%29.69 "Hg10 mi
Weather by CustomWeather, © 2024

See weather overview